Time;durP1;ratioP1;P1;durP2;ratioP2;P2;SDS_P1;SDS_P2;PMS_P1;PMS_P2;Temp;Humidity;BMP_temperature;BMP_pressure;BME280_temperature;BME280_humidity;BME280_pressure;Samples;Min_cycle;Max_cycle;Signal;HPM_P1;HPM_P2
2024/01/12 00:01:07;;;;;;;139.80;40.17;;;0.30;99.90;;;;;;5072801;28;20021;-67
2024/01/12 00:03:35;;;;;;;135.75;39.40;;;0.40;99.90;;;;;;5073318;28;20024;-67
2024/01/12 00:06:01;;;;;;;134.48;39.33;;;0.30;99.90;;;;;;5073193;28;20055;-67
2024/01/12 00:08:28;;;;;;;131.30;39.50;;;0.40;99.90;;;;;;5073245;28;20382;-67
2024/01/12 00:10:54;;;;;;;134.75;40.78;;;0.40;99.90;;;;;;5073066;28;20028;-67
2024/01/12 00:13:20;;;;;;;132.27;39.17;;;0.40;99.90;;;;;;5073276;28;20020;-67
2024/01/12 00:15:45;;;;;;;138.65;39.72;;;0.40;99.90;;;;;;5073098;28;20036;-67
2024/01/12 00:18:11;;;;;;;138.45;40.47;;;0.30;99.90;;;;;;5074031;28;20094;-67
2024/01/12 00:20:42;;;;;;;140.27;40.75;;;0.30;99.90;;;;;;5077299;28;20027;-67
2024/01/12 00:23:09;;;;;;;143.15;42.38;;;0.30;99.90;;;;;;5077193;28;20482;-67
2024/01/12 00:25:34;;;;;;;151.45;42.70;;;0.30;99.90;;;;;;5076914;28;20032;-67
2024/01/12 00:28:00;;;;;;;136.65;40.17;;;0.30;99.90;;;;;;5077258;28;20036;-67
2024/01/12 00:30:25;;;;;;;142.00;41.08;;;0.30;99.90;;;;;;5076959;28;20074;-67
2024/01/12 00:32:51;;;;;;;135.85;41.05;;;0.30;99.90;;;;;;5077138;28;20020;-67
2024/01/12 00:35:16;;;;;;;144.88;42.45;;;0.30;99.90;;;;;;5076874;28;20102;-66
2024/01/12 00:37:42;;;;;;;141.43;41.47;;;0.30;99.90;;;;;;5076860;28;20107;-66
2024/01/12 00:40:08;;;;;;;148.60;41.30;;;0.40;99.90;;;;;;5077094;28;20040;-66
2024/01/12 00:42:34;;;;;;;154.45;42.50;;;0.40;99.90;;;;;;5076954;28;20116;-66
2024/01/12 00:45:00;;;;;;;144.00;39.85;;;0.40;99.90;;;;;;5076681;28;20167;-66
2024/01/12 00:47:25;;;;;;;144.90;43.13;;;0.30;99.90;;;;;;5076566;28;20025;-66
2024/01/12 00:49:51;;;;;;;141.57;39.72;;;0.30;99.90;;;;;;5076738;28;20093;-66
2024/01/12 00:52:16;;;;;;;145.50;40.05;;;0.30;99.90;;;;;;5076806;28;20033;-66
2024/01/12 00:54:42;;;;;;;146.93;41.05;;;0.30;99.90;;;;;;5076334;28;20115;-67
2024/01/12 00:57:08;;;;;;;156.40;42.38;;;0.40;99.90;;;;;;5076665;28;20107;-67
2024/01/12 00:59:33;;;;;;;146.35;40.10;;;0.30;99.90;;;;;;5076569;28;20025;-67
2024/01/12 01:01:59;;;;;;;145.40;40.65;;;0.30;99.90;;;;;;5076490;28;20039;-67
2024/01/12 01:04:26;;;;;;;143.63;41.33;;;0.40;99.90;;;;;;5076318;28;20060;-67
2024/01/12 01:06:52;;;;;;;147.73;41.15;;;0.30;99.90;;;;;;5076209;28;20020;-66
2024/01/12 01:09:18;;;;;;;143.75;41.25;;;0.30;99.90;;;;;;5076414;28;20021;-67
2024/01/12 01:11:44;;;;;;;138.75;40.63;;;0.30;99.90;;;;;;5076452;28;20050;-67
2024/01/12 01:14:09;;;;;;;144.60;39.85;;;0.40;99.90;;;;;;5076295;28;20039;-67
2024/01/12 01:16:35;;;;;;;137.45;41.55;;;0.40;99.90;;;;;;5076290;28;20047;-67
2024/01/12 01:19:01;;;;;;;135.43;39.42;;;0.40;99.90;;;;;;5075914;28;20025;-67
2024/01/12 01:21:26;;;;;;;137.23;38.42;;;0.40;99.90;;;;;;5076506;28;20025;-67
2024/01/12 01:23:54;;;;;;;139.30;40.22;;;0.40;99.90;;;;;;5075975;28;20038;-67
2024/01/12 01:26:19;;;;;;;136.05;41.75;;;0.40;99.90;;;;;;5075954;28;20032;-67
2024/01/12 01:28:45;;;;;;;138.65;40.53;;;0.40;99.90;;;;;;5075897;28;20498;-67
2024/01/12 01:31:10;;;;;;;136.52;38.78;;;0.40;99.90;;;;;;5075822;28;20410;-67
2024/01/12 01:33:36;;;;;;;120.03;39.28;;;0.40;99.90;;;;;;5075818;28;20035;-67
2024/01/12 01:36:03;;;;;;;135.13;40.38;;;0.40;99.90;;;;;;5075965;28;20063;-67
2024/01/12 01:38:28;;;;;;;125.15;38.83;;;0.40;99.90;;;;;;5076068;28;20526;-67
2024/01/12 01:40:54;;;;;;;127.85;39.58;;;0.40;99.90;;;;;;5075868;28;20112;-67
2024/01/12 01:43:21;;;;;;;139.55;40.65;;;0.40;99.90;;;;;;5075407;28;20401;-67
2024/01/12 01:45:47;;;;;;;140.07;43.90;;;0.40;99.90;;;;;;5075545;28;20029;-68
2024/01/12 01:48:13;;;;;;;136.20;42.65;;;0.40;99.90;;;;;;5075401;28;20021;-67
2024/01/12 01:50:39;;;;;;;131.57;40.38;;;0.40;99.90;;;;;;5075682;28;20063;-67
2024/01/12 01:53:05;;;;;;;135.43;42.28;;;0.40;99.90;;;;;;5075711;28;20431;-67
2024/01/12 01:55:31;;;;;;;133.65;40.55;;;0.40;99.90;;;;;;5075602;28;20016;-67
2024/01/12 01:57:59;;;;;;;143.25;40.97;;;0.50;99.90;;;;;;5075307;28;20024;-67
2024/01/12 02:00:26;;;;;;;143.30;42.25;;;0.40;99.90;;;;;;5075033;28;20131;-67
2024/01/12 02:02:52;;;;;;;136.18;41.50;;;0.40;99.90;;;;;;5075428;28;20032;-67
2024/01/12 02:05:18;;;;;;;146.27;42.33;;;0.40;99.90;;;;;;5075437;28;20021;-67
2024/01/12 02:07:44;;;;;;;139.38;40.72;;;0.40;99.90;;;;;;5075139;28;20474;-67
2024/01/12 02:10:09;;;;;;;148.45;43.55;;;0.40;99.90;;;;;;5075408;28;20028;-67
2024/01/12 02:12:37;;;;;;;144.43;41.80;;;0.40;99.90;;;;;;5075022;28;20035;-67
2024/01/12 02:15:07;;;;;;;138.27;40.08;;;0.40;99.90;;;;;;5075313;28;20021;-67
2024/01/12 02:17:33;;;;;;;141.02;41.88;;;0.40;99.90;;;;;;5075263;28;20032;-67
2024/01/12 02:19:59;;;;;;;140.27;43.15;;;0.40;99.90;;;;;;5075278;28;20035;-67
2024/01/12 02:22:26;;;;;;;140.48;41.70;;;0.40;99.90;;;;;;5075114;28;20020;-67
2024/01/12 02:24:51;;;;;;;134.32;41.90;;;0.40;99.90;;;;;;5075007;28;20409;-67
2024/01/12 02:27:17;;;;;;;141.43;41.97;;;0.50;99.90;;;;;;5074601;28;20017;-67
2024/01/12 02:29:43;;;;;;;143.02;42.25;;;0.40;99.90;;;;;;5074626;28;20542;-67
2024/01/12 02:32:08;;;;;;;145.45;42.13;;;0.50;99.90;;;;;;5074963;28;20048;-67
2024/01/12 02:34:34;;;;;;;151.30;42.78;;;0.40;99.90;;;;;;5074807;28;20386;-66
2024/01/12 02:37:00;;;;;;;147.50;42.03;;;0.40;99.90;;;;;;5074483;28;20055;-67
2024/01/12 02:39:25;;;;;;;145.13;43.40;;;0.40;99.90;;;;;;5074266;28;20069;-67
2024/01/12 02:41:51;;;;;;;155.02;43.13;;;0.40;99.90;;;;;;5074380;28;20074;-66
2024/01/12 02:44:16;;;;;;;144.75;43.03;;;0.50;99.90;;;;;;5074430;28;20108;-67
2024/01/12 02:46:42;;;;;;;143.70;41.88;;;0.50;99.90;;;;;;5074422;28;20482;-67
2024/01/12 02:49:08;;;;;;;155.57;44.20;;;0.50;99.90;;;;;;5074563;28;20029;-66
2024/01/12 02:51:34;;;;;;;145.57;40.78;;;0.40;99.90;;;;;;5074623;28;20057;-67
2024/01/12 02:54:00;;;;;;;148.02;44.50;;;0.50;99.90;;;;;;5074400;28;20029;-66
2024/01/12 02:56:25;;;;;;;150.68;44.20;;;0.50;99.90;;;;;;5074205;28;20110;-67
2024/01/12 02:58:51;;;;;;;155.43;43.90;;;0.40;99.90;;;;;;5074193;28;20039;-67
2024/01/12 03:01:19;;;;;;;144.27;43.05;;;0.50;99.90;;;;;;5074109;28;20035;-66
2024/01/12 03:03:44;;;;;;;149.25;43.88;;;0.50;99.90;;;;;;5074182;28;20078;-67
2024/01/12 03:06:10;;;;;;;157.73;45.65;;;0.50;99.90;;;;;;5073965;28;20029;-67
2024/01/12 03:08:35;;;;;;;147.60;45.95;;;0.50;99.90;;;;;;5073976;28;20028;-66
2024/01/12 03:11:01;;;;;;;154.00;42.25;;;0.50;99.90;;;;;;5074111;28;20025;-67
2024/01/12 03:13:27;;;;;;;144.73;42.80;;;0.40;99.90;;;;;;5073888;28;20578;-67
2024/01/12 03:15:53;;;;;;;147.18;44.08;;;0.50;99.90;;;;;;5074202;28;20116;-67
2024/01/12 03:18:19;;;;;;;147.50;44.40;;;0.50;99.90;;;;;;5073997;28;20068;-66
2024/01/12 03:20:45;;;;;;;153.80;44.35;;;0.40;99.90;;;;;;5073772;28;20029;-67
2024/01/12 03:23:10;;;;;;;154.40;43.85;;;0.40;99.90;;;;;;5073933;28;20078;-67
2024/01/12 03:25:36;;;;;;;138.80;43.00;;;0.50;99.90;;;;;;5073731;28;20033;-67
2024/01/12 03:28:02;;;;;;;149.23;44.90;;;0.50;99.90;;;;;;5073718;28;20017;-67
2024/01/12 03:30:27;;;;;;;151.90;44.92;;;0.50;99.90;;;;;;5073855;28;20034;-67
2024/01/12 03:32:53;;;;;;;156.80;45.05;;;0.40;99.90;;;;;;5073766;28;20142;-67
2024/01/12 03:35:18;;;;;;;148.93;46.00;;;0.50;99.90;;;;;;5073408;28;20048;-67
2024/01/12 03:37:45;;;;;;;147.13;44.17;;;0.50;99.90;;;;;;5073715;28;20111;-67
2024/01/12 03:40:11;;;;;;;155.55;45.58;;;0.50;99.90;;;;;;5073364;28;20020;-67
2024/01/12 03:42:37;;;;;;;137.48;43.63;;;0.50;99.90;;;;;;5073590;28;20032;-67
2024/01/12 03:45:03;;;;;;;121.13;39.55;;;0.50;99.90;;;;;;5073643;28;20452;-67
2024/01/12 03:47:28;;;;;;;142.52;42.83;;;0.50;99.90;;;;;;5073208;28;20554;-67
2024/01/12 03:49:54;;;;;;;135.77;42.72;;;0.50;99.90;;;;;;5073516;28;20489;-67
2024/01/12 03:52:19;;;;;;;139.07;44.17;;;0.50;99.90;;;;;;5072981;28;20017;-67
2024/01/12 03:54:45;;;;;;;142.02;43.60;;;0.50;99.90;;;;;;5072838;28;20024;-67
2024/01/12 03:57:10;;;;;;;138.73;44.03;;;0.50;99.90;;;;;;5073401;28;20028;-67
2024/01/12 03:59:36;;;;;;;133.48;42.60;;;0.50;99.90;;;;;;5073444;28;20059;-67
2024/01/12 04:02:01;;;;;;;142.75;44.42;;;0.50;99.90;;;;;;5073318;28;20481;-67
2024/01/12 04:04:27;;;;;;;134.45;42.05;;;0.50;99.90;;;;;;5073171;28;20032;-67
2024/01/12 04:06:53;;;;;;;136.27;43.45;;;0.50;99.90;;;;;;5073156;28;20070;-67
2024/01/12 04:09:18;;;;;;;129.73;41.95;;;0.50;99.90;;;;;;5073228;28;20024;-67
2024/01/12 04:11:44;;;;;;;139.98;43.42;;;0.50;99.90;;;;;;5073144;28;20069;-67
2024/01/12 04:14:09;;;;;;;122.97;41.67;;;0.50;99.90;;;;;;5073131;28;20089;-67
2024/01/12 04:16:35;;;;;;;138.77;43.00;;;0.50;99.90;;;;;;5073104;28;20033;-67
2024/01/12 04:19:00;;;;;;;137.43;42.33;;;0.50;99.90;;;;;;5073156;28;20524;-67
2024/01/12 04:21:26;;;;;;;137.77;42.67;;;0.50;99.90;;;;;;5072914;28;20064;-67
2024/01/12 04:23:52;;;;;;;137.15;42.42;;;0.50;99.90;;;;;;5073007;28;20020;-67
2024/01/12 04:26:17;;;;;;;143.43;43.70;;;0.50;99.90;;;;;;5072907;28;20032;-67
2024/01/12 04:28:43;;;;;;;144.77;43.53;;;0.50;99.90;;;;;;5073004;28;20020;-67
2024/01/12 04:31:08;;;;;;;140.82;43.90;;;0.50;99.90;;;;;;5073174;28;20478;-66
2024/01/12 04:33:34;;;;;;;138.68;44.28;;;0.50;99.90;;;;;;5073238;28;20051;-67
2024/01/12 04:36:00;;;;;;;136.63;44.10;;;0.50;99.90;;;;;;5072962;28;20064;-67
2024/01/12 04:38:27;;;;;;;135.63;42.45;;;0.50;99.90;;;;;;5073009;28;20036;-67
2024/01/12 04:40:53;;;;;;;137.80;44.40;;;0.50;99.90;;;;;;5072648;28;20033;-66
2024/01/12 04:43:19;;;;;;;132.20;44.30;;;0.60;99.90;;;;;;5073025;28;20024;-67
2024/01/12 04:45:44;;;;;;;136.80;43.92;;;0.60;99.90;;;;;;5072926;28;20032;-67
2024/01/12 04:48:10;;;;;;;144.70;45.63;;;0.50;99.90;;;;;;5072897;28;20122;-67
2024/01/12 04:50:35;;;;;;;131.43;45.85;;;0.60;99.90;;;;;;5073020;28;20021;-67
2024/01/12 04:53:01;;;;;;;133.02;45.55;;;0.60;99.90;;;;;;5072987;28;20029;-67
2024/01/12 04:55:27;;;;;;;135.82;44.17;;;0.60;99.90;;;;;;5072843;28;20036;-67
2024/01/12 04:57:53;;;;;;;144.88;47.08;;;0.60;99.90;;;;;;5072817;28;20062;-67
2024/01/12 05:00:19;;;;;;;138.13;42.20;;;0.60;99.90;;;;;;5072648;28;20021;-67
2024/01/12 05:02:44;;;;;;;129.80;43.38;;;0.60;99.90;;;;;;5072649;28;20035;-67
2024/01/12 05:05:10;;;;;;;124.15;42.22;;;0.60;99.90;;;;;;5074773;28;20029;-67
2024/01/12 05:07:36;;;;;;;118.60;43.13;;;0.60;99.90;;;;;;5076286;28;20039;-67
2024/01/12 05:10:04;;;;;;;125.70;42.75;;;0.60;99.90;;;;;;5076297;28;20078;-67
2024/01/12 05:12:30;;;;;;;130.23;43.60;;;0.60;99.90;;;;;;5076191;28;20082;-67
2024/01/12 05:14:55;;;;;;;128.82;43.20;;;0.60;99.90;;;;;;5076367;28;20033;-67
2024/01/12 05:17:22;;;;;;;123.60;42.80;;;0.70;99.90;;;;;;5076295;28;20024;-67
2024/01/12 05:19:48;;;;;;;129.27;42.22;;;0.70;99.90;;;;;;5076344;28;20052;-67
2024/01/12 05:22:14;;;;;;;127.28;42.40;;;0.70;99.90;;;;;;5075985;28;20471;-67
2024/01/12 05:24:40;;;;;;;119.32;40.83;;;0.70;99.90;;;;;;5076293;28;20040;-67
2024/01/12 05:27:05;;;;;;;120.95;41.47;;;0.70;99.90;;;;;;5075851;28;20029;-66
2024/01/12 05:29:31;;;;;;;124.80;41.33;;;0.70;99.90;;;;;;5075962;28;20391;-67
2024/01/12 05:31:56;;;;;;;122.65;43.47;;;0.60;99.90;;;;;;5075863;28;20386;-67
2024/01/12 05:34:22;;;;;;;126.57;40.78;;;0.60;99.90;;;;;;5075776;28;20029;-67
2024/01/12 05:36:47;;;;;;;130.43;43.17;;;0.60;99.90;;;;;;5075652;28;20055;-67
2024/01/12 05:39:15;;;;;;;133.60;42.78;;;0.60;99.90;;;;;;5076083;28;20032;-67
2024/01/12 05:41:40;;;;;;;140.63;42.97;;;0.60;99.90;;;;;;5075697;28;20029;-67
2024/01/12 05:44:05;;;;;;;142.98;43.28;;;0.60;99.90;;;;;;5075802;28;20368;-67
2024/01/12 05:46:31;;;;;;;133.45;42.97;;;0.60;99.90;;;;;;5075637;28;20368;-67
2024/01/12 05:48:57;;;;;;;137.75;44.80;;;0.60;99.90;;;;;;5075713;28;20035;-67
2024/01/12 05:51:23;;;;;;;134.55;43.65;;;0.60;99.90;;;;;;5075704;28;20017;-67
2024/01/12 05:53:49;;;;;;;138.82;43.25;;;0.60;99.90;;;;;;5075512;28;20055;-67
2024/01/12 05:56:14;;;;;;;138.50;43.40;;;0.60;99.90;;;;;;5075498;28;20043;-67
2024/01/12 05:58:40;;;;;;;139.80;45.70;;;0.60;99.90;;;;;;5075170;28;20386;-67
2024/01/12 06:01:06;;;;;;;127.03;43.85;;;0.60;99.90;;;;;;5075530;28;20031;-67
2024/01/12 06:03:31;;;;;;;140.88;45.47;;;0.60;99.90;;;;;;5075440;28;20390;-67
2024/01/12 06:05:57;;;;;;;146.05;44.65;;;0.60;99.90;;;;;;5075397;28;20028;-67
2024/01/12 06:08:23;;;;;;;143.35;44.45;;;0.70;99.90;;;;;;5075054;28;20025;-67
2024/01/12 06:10:50;;;;;;;146.43;46.03;;;0.70;99.90;;;;;;5075163;28;20040;-67
2024/01/12 06:13:16;;;;;;;145.05;44.60;;;0.70;99.90;;;;;;5075207;28;20029;-67
2024/01/12 06:15:42;;;;;;;135.25;45.28;;;0.30;99.90;;;;;;5074452;28;20116;-67
2024/01/12 06:18:07;;;;;;;139.38;44.70;;;0.80;99.90;;;;;;5074830;28;20056;-67
2024/01/12 06:20:33;;;;;;;139.15;43.42;;;0.80;99.90;;;;;;5075075;28;20069;-68
2024/01/12 06:22:58;;;;;;;131.80;42.72;;;0.80;99.90;;;;;;5074893;28;20059;-67
2024/01/12 06:25:24;;;;;;;123.57;41.90;;;0.80;99.90;;;;;;5074904;28;20024;-67
2024/01/12 06:27:50;;;;;;;131.35;45.75;;;0.80;99.90;;;;;;5074766;28;20032;-67
2024/01/12 06:30:16;;;;;;;149.73;44.95;;;0.80;99.90;;;;;;5074799;28;20051;-67
2024/01/12 06:32:43;;;;;;;131.18;42.05;;;0.80;99.90;;;;;;5074528;28;20029;-67
2024/01/12 06:35:10;;;;;;;138.80;42.85;;;0.80;99.90;;;;;;5074688;28;20035;-67
2024/01/12 06:37:36;;;;;;;136.75;44.47;;;0.80;99.90;;;;;;5074889;28;20039;-67
2024/01/12 06:40:02;;;;;;;143.82;44.75;;;0.80;99.90;;;;;;5074806;28;20029;-67
2024/01/12 06:42:28;;;;;;;143.73;44.22;;;0.80;99.90;;;;;;5074457;28;20478;-67
2024/01/12 06:44:54;;;;;;;142.32;45.30;;;0.80;99.90;;;;;;5074461;28;20035;-67
2024/01/12 06:47:20;;;;;;;140.05;42.70;;;0.80;99.90;;;;;;5074225;28;20103;-67
2024/01/12 06:49:46;;;;;;;143.00;44.67;;;0.80;99.90;;;;;;5074559;28;20067;-68
2024/01/12 06:52:12;;;;;;;141.23;43.80;;;0.80;99.90;;;;;;5074439;28;20047;-67
2024/01/12 06:54:40;;;;;;;143.57;42.50;;;0.80;99.90;;;;;;5074464;28;20032;-67
2024/01/12 06:57:06;;;;;;;134.82;41.92;;;0.90;99.90;;;;;;5074351;28;20111;-67
2024/01/12 06:59:31;;;;;;;127.10;43.28;;;0.90;99.90;;;;;;5074106;28;20111;-67
2024/01/12 07:01:57;;;;;;;130.65;42.70;;;0.90;99.90;;;;;;5074269;28;20029;-67
2024/01/12 07:04:22;;;;;;;120.88;40.97;;;0.80;99.90;;;;;;5073798;28;20028;-67
2024/01/12 07:06:48;;;;;;;123.28;37.88;;;0.80;99.90;;;;;;5073965;28;20111;-67
2024/01/12 07:09:14;;;;;;;124.07;41.08;;;0.80;99.90;;;;;;5074272;28;20391;-67
2024/01/12 07:11:42;;;;;;;112.18;39.60;;;0.90;99.90;;;;;;5074001;28;20544;-66
2024/01/12 07:14:09;;;;;;;117.40;38.53;;;0.90;99.90;;;;;;5073886;28;20371;-67
2024/01/12 07:16:35;;;;;;;117.68;36.60;;;0.90;99.90;;;;;;5073931;28;20478;-67
2024/01/12 07:19:01;;;;;;;116.88;37.17;;;0.90;99.90;;;;;;5073761;28;20020;-66
2024/01/12 07:21:26;;;;;;;120.38;38.42;;;0.90;99.90;;;;;;5073657;28;20170;-66
2024/01/12 07:23:52;;;;;;;125.07;38.50;;;0.90;99.90;;;;;;5073925;28;20040;-66
2024/01/12 07:26:17;;;;;;;95.18;32.55;;;0.80;99.90;;;;;;5073586;28;20425;-66
2024/01/12 07:28:43;;;;;;;92.20;30.77;;;0.80;99.90;;;;;;5073754;28;20025;-66
2024/01/12 07:31:08;;;;;;;92.85;28.80;;;0.90;99.90;;;;;;5073730;28;20036;-68
2024/01/12 07:33:34;;;;;;;99.43;31.27;;;0.80;99.90;;;;;;5073847;28;20025;-68
2024/01/12 07:35:59;;;;;;;97.78;29.65;;;0.90;99.90;;;;;;5073424;28;20093;-67
2024/01/12 07:38:25;;;;;;;88.30;30.60;;;0.90;99.90;;;;;;5073481;28;20629;-68
2024/01/12 07:40:50;;;;;;;80.68;24.95;;;0.90;99.90;;;;;;5073670;28;20054;-68
2024/01/12 07:43:16;;;;;;;72.10;24.45;;;0.90;99.90;;;;;;5073678;28;20529;-68
2024/01/12 07:45:42;;;;;;;79.18;25.80;;;1.00;99.90;;;;;;5073347;28;20367;-68
2024/01/12 07:48:08;;;;;;;82.68;26.17;;;0.90;99.90;;;;;;5073428;28;20482;-68
2024/01/12 07:50:34;;;;;;;87.90;26.38;;;0.90;99.90;;;;;;5073404;28;20055;-68
2024/01/12 07:52:59;;;;;;;79.22;25.25;;;0.90;99.90;;;;;;5073089;28;20490;-68
2024/01/12 07:55:27;;;;;;;87.07;26.13;;;1.00;99.90;;;;;;5073407;28;20028;-70
2024/01/12 07:57:53;;;;;;;84.75;26.65;;;1.00;99.90;;;;;;5073353;28;20112;-70
2024/01/12 08:00:18;;;;;;;80.95;25.92;;;0.90;99.90;;;;;;5073232;28;20102;-70
2024/01/12 08:02:44;;;;;;;82.03;25.27;;;1.00;99.90;;;;;;5073140;28;20121;-69
2024/01/12 08:05:10;;;;;;;77.28;24.38;;;0.90;99.90;;;;;;5073331;28;20025;-69
2024/01/12 08:07:36;;;;;;;76.97;24.23;;;0.90;99.90;;;;;;5073049;28;20109;-70
2024/01/12 08:10:03;;;;;;;71.07;23.63;;;1.00;99.90;;;;;;5073312;28;20035;-70
2024/01/12 08:12:28;;;;;;;76.18;23.52;;;1.00;99.90;;;;;;5073220;28;20035;-70
2024/01/12 08:14:54;;;;;;;65.00;22.48;;;0.90;99.90;;;;;;5073484;28;20327;-70
2024/01/12 08:17:19;;;;;;;78.82;22.27;;;0.90;99.90;;;;;;5073155;28;20075;-70
2024/01/12 08:19:44;;;;;;;72.97;23.83;;;0.90;99.90;;;;;;5072996;28;20025;-70
2024/01/12 08:22:10;;;;;;;75.82;23.85;;;0.90;99.90;;;;;;5073141;28;20035;-70
2024/01/12 08:24:36;;;;;;;68.13;23.20;;;1.00;99.90;;;;;;5073302;28;20044;-69
2024/01/12 08:27:02;;;;;;;71.45;22.92;;;1.00;99.90;;;;;;5072833;28;20021;-70
2024/01/12 08:29:27;;;;;;;76.50;22.85;;;0.90;99.90;;;;;;5072950;28;20025;-70
2024/01/12 08:31:53;;;;;;;68.22;22.63;;;1.00;99.90;;;;;;5072986;28;20020;-70
2024/01/12 08:34:18;;;;;;;80.53;23.50;;;1.00;99.90;;;;;;5073046;28;20020;-70
2024/01/12 08:36:44;;;;;;;68.40;23.33;;;1.00;99.90;;;;;;5072549;28;20048;-70
2024/01/12 08:39:09;;;;;;;73.22;24.48;;;0.90;99.90;;;;;;5073555;28;20073;-70
2024/01/12 08:41:36;;;;;;;74.68;24.17;;;1.00;99.90;;;;;;5076921;28;20486;-71
2024/01/12 08:44:01;;;;;;;66.72;22.17;;;1.00;99.90;;;;;;5076944;28;20509;-70
2024/01/12 08:46:27;;;;;;;81.68;24.30;;;0.90;99.90;;;;;;5076624;28;20060;-70
2024/01/12 08:48:54;;;;;;;70.50;22.42;;;1.00;99.90;;;;;;5076817;28;20078;-70
2024/01/12 08:51:20;;;;;;;64.20;21.45;;;1.00;99.90;;;;;;5076893;28;20509;-70
2024/01/12 08:53:45;;;;;;;73.70;24.85;;;0.90;99.90;;;;;;5076827;28;20024;-70
2024/01/12 08:56:11;;;;;;;81.10;25.15;;;0.90;99.90;;;;;;5076737;28;20043;-70
2024/01/12 08:58:38;;;;;;;83.63;23.70;;;1.00;99.90;;;;;;5076549;28;20031;-70
2024/01/12 09:01:04;;;;;;;78.75;22.95;;;0.90;99.90;;;;;;5076594;28;20077;-70
2024/01/12 09:03:30;;;;;;;71.32;22.15;;;0.90;99.90;;;;;;5076577;28;20039;-70
2024/01/12 09:05:55;;;;;;;71.90;21.35;;;0.90;99.90;;;;;;5076502;28;20394;-70
2024/01/12 09:08:21;;;;;;;69.50;20.88;;;0.90;99.90;;;;;;5076451;28;20072;-70
2024/01/12 09:10:46;;;;;;;83.10;22.58;;;0.90;99.90;;;;;;5076295;28;20074;-70
2024/01/12 09:13:12;;;;;;;61.25;21.10;;;0.90;99.90;;;;;;5076409;28;20024;-70
2024/01/12 09:15:37;;;;;;;71.82;22.65;;;0.90;99.90;;;;;;5076370;28;20027;-71
2024/01/12 09:18:04;;;;;;;74.43;22.63;;;0.90;99.90;;;;;;5076238;28;20086;-71
2024/01/12 09:20:32;;;;;;;74.07;23.27;;;1.00;99.90;;;;;;5076264;28;20028;-70
2024/01/12 09:22:58;;;;;;;71.93;21.60;;;1.00;99.90;;;;;;5076229;28;20043;-70
2024/01/12 09:25:23;;;;;;;66.05;21.67;;;1.00;99.90;;;;;;5076214;28;20082;-70
2024/01/12 09:27:50;;;;;;;70.55;22.00;;;1.00;99.90;;;;;;5075870;28;20037;-70
2024/01/12 09:30:16;;;;;;;63.20;20.30;;;1.00;99.90;;;;;;5076074;28;20028;-70
2024/01/12 09:32:41;;;;;;;65.65;23.23;;;0.90;99.90;;;;;;5075999;28;20056;-70
2024/01/12 09:35:08;;;;;;;76.57;22.30;;;0.90;99.90;;;;;;5075720;28;20119;-70
2024/01/12 09:37:33;;;;;;;64.80;21.67;;;0.90;99.90;;;;;;5075702;28;20043;-70
2024/01/12 09:39:59;;;;;;;67.85;21.63;;;1.00;99.90;;;;;;5075766;28;20041;-70
2024/01/12 09:42:29;;;;;;;67.45;21.75;;;1.00;99.90;;;;;;5075890;28;20059;-70
2024/01/12 09:44:54;;;;;;;64.15;22.08;;;1.00;99.90;;;;;;5075785;28;20490;-70
2024/01/12 09:47:20;;;;;;;76.90;23.92;;;1.00;99.90;;;;;;5075541;28;20036;-70
2024/01/12 09:49:46;;;;;;;67.20;22.48;;;1.00;99.90;;;;;;5075833;28;20029;-70
2024/01/12 09:52:11;;;;;;;79.85;23.13;;;1.00;99.90;;;;;;5074438;28;20472;-70
2024/01/12 09:54:37;;;;;;;73.28;23.77;;;1.10;99.90;;;;;;5075295;28;20024;-70
2024/01/12 09:57:06;;;;;;;62.88;20.67;;;1.00;99.90;;;;;;5075592;28;20083;-70
2024/01/12 09:59:33;;;;;;;70.82;23.48;;;1.00;99.90;;;;;;5075111;28;20032;-70
2024/01/12 10:01:59;;;;;;;77.60;25.23;;;1.00;99.90;;;;;;5075408;28;20029;-70
2024/01/12 10:04:24;;;;;;;76.20;23.73;;;1.00;99.90;;;;;;5075501;28;20532;-70
2024/01/12 10:06:50;;;;;;;71.32;22.58;;;1.00;99.90;;;;;;5075220;28;20064;-70
2024/01/12 10:09:17;;;;;;;70.97;22.73;;;1.00;99.90;;;;;;5075447;28;20120;-70
2024/01/12 10:11:42;;;;;;;80.00;23.20;;;1.00;99.90;;;;;;5075208;28;20021;-70
2024/01/12 10:14:08;;;;;;;75.50;22.23;;;1.00;99.90;;;;;;5075071;28;20139;-70
2024/01/12 10:16:34;;;;;;;73.80;22.63;;;1.00;99.90;;;;;;5075014;28;20025;-70
2024/01/12 10:19:00;;;;;;;72.97;22.83;;;1.00;99.90;;;;;;5075094;28;20032;-70
2024/01/12 10:21:26;;;;;;;69.63;23.83;;;1.00;99.90;;;;;;5075149;28;20501;-70
2024/01/12 10:24:02;;;;;;;73.38;24.35;;;1.00;99.90;;;;;;5074683;28;20028;-71
2024/01/12 10:26:28;;;;;;;71.25;23.33;;;1.00;99.90;;;;;;5074962;28;20107;-71
2024/01/12 10:28:54;;;;;;;73.82;24.20;;;1.00;99.90;;;;;;5074961;28;20024;-70
2024/01/12 10:31:20;;;;;;;72.30;24.42;;;1.00;99.90;;;;;;5074977;28;20027;-70
2024/01/12 10:33:46;;;;;;;70.32;23.17;;;1.00;99.90;;;;;;5074931;28;20502;-71
2024/01/12 10:36:18;;;;;;;74.30;24.30;;;1.00;99.90;;;;;;5074445;28;20059;-70
2024/01/12 10:38:45;;;;;;;69.50;25.08;;;1.00;99.90;;;;;;5074907;28;20531;-71
2024/01/12 10:41:11;;;;;;;74.35;24.52;;;1.00;99.90;;;;;;5074773;28;20032;-70
2024/01/12 10:43:38;;;;;;;87.28;26.60;;;0.90;99.90;;;;;;5074352;28;20035;-71
2024/01/12 10:46:16;;;;;;;76.57;23.77;;;1.00;99.90;;;;;;5074580;28;20051;-71
2024/01/12 10:48:48;;;;;;;79.97;26.83;;;1.00;99.90;;;;;;5074224;28;20025;-70
2024/01/12 10:51:21;;;;;;;82.22;26.70;;;1.10;99.90;;;;;;5074664;28;20382;-71
2024/01/12 10:53:59;;;;;;;61.40;19.60;;;1.10;99.90;;;;;;5074294;28;20040;-71
2024/01/12 10:56:25;;;;;;;80.75;26.67;;;1.10;99.90;;;;;;5074384;28;20039;-71
2024/01/12 10:58:52;;;;;;;80.88;25.92;;;1.10;99.90;;;;;;5073863;28;20109;-71
2024/01/12 11:01:18;;;;;;;81.57;26.77;;;1.10;99.90;;;;;;5073752;28;20032;-71
2024/01/12 11:03:45;;;;;;;79.13;27.15;;;1.20;99.90;;;;;;5073407;28;20059;-71
2024/01/12 11:06:13;;;;;;;84.95;27.15;;;1.20;99.90;;;;;;5074064;28;20032;-71
2024/01/12 11:08:41;;;;;;;79.38;26.25;;;1.20;99.90;;;;;;5074137;28;20107;-71
2024/01/12 11:11:09;;;;;;;80.38;27.45;;;1.20;99.90;;;;;;5074126;28;20475;-71
2024/01/12 11:13:36;;;;;;;88.60;28.35;;;1.30;99.90;;;;;;5073908;28;20386;-71
2024/01/12 11:16:02;;;;;;;81.38;28.30;;;1.30;99.90;;;;;;5073908;28;20067;-70
2024/01/12 11:18:29;;;;;;;77.18;28.38;;;1.20;99.90;;;;;;5073420;28;20089;-71
2024/01/12 11:21:02;;;;;;;81.78;27.83;;;1.20;99.90;;;;;;5073918;28;20047;-71
2024/01/12 11:23:28;;;;;;;76.32;26.13;;;1.30;99.90;;;;;;5073338;28;20029;-70
2024/01/12 11:25:55;;;;;;;84.50;27.45;;;1.30;99.90;;;;;;5073756;28;20028;-70
2024/01/12 11:28:20;;;;;;;74.35;26.98;;;1.20;99.90;;;;;;5073956;28;20489;-71
2024/01/12 11:30:50;;;;;;;84.82;28.27;;;1.30;99.90;;;;;;5073736;28;20029;-71
2024/01/12 11:33:17;;;;;;;88.18;26.67;;;1.30;99.90;;;;;;5073739;28;20044;-70
2024/01/12 11:35:51;;;;;;;79.80;28.00;;;1.30;99.90;;;;;;5073600;28;20410;-71
2024/01/12 11:38:18;;;;;;;77.18;26.20;;;1.40;99.90;;;;;;5073807;28;20506;-70
2024/01/12 11:40:48;;;;;;;87.47;25.85;;;1.40;99.90;;;;;;5073813;28;20382;-71
2024/01/12 11:43:17;;;;;;;85.82;28.80;;;1.50;99.90;;;;;;5073648;28;20486;-71
2024/01/12 11:45:43;;;;;;;90.88;29.55;;;1.40;99.90;;;;;;5073716;28;20442;-70
2024/01/12 11:48:14;;;;;;;95.43;31.33;;;1.40;99.90;;;;;;5073211;28;20055;-71
2024/01/12 11:50:41;;;;;;;82.88;27.75;;;1.40;99.90;;;;;;5073529;28;20027;-70
2024/01/12 11:53:08;;;;;;;87.55;30.52;;;1.40;99.90;;;;;;5073175;28;20063;-70
2024/01/12 11:55:36;;;;;;;94.10;30.50;;;1.40;99.90;;;;;;5073511;28;20025;-71
2024/01/12 11:58:02;;;;;;;94.95;30.75;;;1.50;99.90;;;;;;5073380;28;20028;-71
2024/01/12 12:00:27;;;;;;;94.53;29.77;;;1.40;99.90;;;;;;5073206;28;20032;-71
2024/01/12 12:02:53;;;;;;;118.63;41.30;;;1.40;99.90;;;;;;5073194;28;20036;-71
2024/01/12 12:05:19;;;;;;;84.53;30.08;;;1.50;99.90;;;;;;5073221;28;20432;-71
2024/01/12 12:07:44;;;;;;;102.60;39.88;;;1.50;99.90;;;;;;5072818;28;20111;-71
2024/01/12 12:10:10;;;;;;;129.80;50.08;;;1.50;99.90;;;;;;5073454;28;20028;-71
2024/01/12 12:12:36;;;;;;;109.05;33.15;;;1.40;99.90;;;;;;5072921;28;20501;-71
2024/01/12 12:15:08;;;;;;;101.40;32.13;;;1.50;99.90;;;;;;5072525;28;20021;-71
2024/01/12 12:17:35;;;;;;;94.03;29.65;;;1.40;99.90;;;;;;5073261;28;20105;-71
2024/01/12 12:20:03;;;;;;;95.95;29.77;;;1.40;99.90;;;;;;5073202;28;20488;-71
2024/01/12 12:22:30;;;;;;;104.95;31.48;;;1.40;99.90;;;;;;5073067;28;20028;-71
2024/01/12 12:24:55;;;;;;;105.63;31.88;;;1.40;99.90;;;;;;5073201;28;20119;-71